Time;durP1;ratioP1;P1;durP2;ratioP2;P2;SDS_P1;SDS_P2;PMS_P1;PMS_P2;Temp;Humidity;BMP_temperature;BMP_pressure;BME280_temperature;BME280_humidity;BME280_pressure;Samples;Min_cycle;Max_cycle;Signal;HPM_P1;HPM_P2
2024/01/02 00:02:18;;;;;;;24.33;8.52;;;8.50;99.90;;;8.45;100.00;99617.25;4805552;29;20078;-68
2024/01/02 00:04:48;;;;;;;20.97;8.27;;;8.50;99.90;;;8.11;100.00;99557.16;4805602;29;20054;-68
2024/01/02 00:07:17;;;;;;;;;;;8.50;99.90;;;8.63;100.00;99611.69;4805889;29;20341;-68
2024/01/02 00:09:45;;;;;;;18.80;7.93;;;8.50;99.90;;;8.65;100.00;99599.38;4805368;29;20408;-68
2024/01/02 00:12:14;;;;;;;14.88;7.70;;;8.50;99.90;;;8.66;100.00;99590.53;4819512;29;20565;-68
2024/01/02 00:14:42;;;;;;;16.92;7.43;;;8.50;99.90;;;8.59;100.00;99570.47;4805340;29;20066;-68
2024/01/02 00:17:11;;;;;;;15.60;7.50;;;8.50;99.90;;;8.59;100.00;99566.09;4819500;29;20059;-68
2024/01/02 00:19:41;;;;;;;17.60;7.32;;;8.50;99.90;;;8.55;100.00;99543.31;4805714;29;20057;-68
2024/01/02 00:22:09;;;;;;;12.87;6.70;;;8.40;99.90;;;8.46;100.00;99547.88;4819534;29;20054;-68
2024/01/02 00:24:38;;;;;;;17.25;7.32;;;8.40;99.90;;;8.67;100.00;99547.50;4805692;29;20324;-68
2024/01/02 00:27:06;;;;;;;16.60;7.10;;;8.50;99.90;;;8.61;100.00;99539.69;4805842;29;20058;-68
2024/01/02 00:29:34;;;;;;;16.75;6.93;;;8.50;99.90;;;8.60;100.00;99515.09;4805336;29;20116;-69
2024/01/02 00:32:03;;;;;;;16.08;6.80;;;8.50;99.90;;;8.66;100.00;99498.31;4819238;29;20054;-68
2024/01/02 00:34:32;;;;;;;14.30;6.95;;;8.50;99.90;;;8.70;100.00;99500.88;4819355;29;20058;-69
2024/01/02 00:37:02;;;;;;;14.93;6.72;;;8.60;99.90;;;8.72;100.00;99488.53;4819311;29;20055;-69
2024/01/02 00:39:30;;;;;;;14.02;6.68;;;8.60;99.90;;;8.70;100.00;99497.34;4819229;29;20562;-69
2024/01/02 00:41:59;;;;;;;14.90;6.10;;;8.60;99.90;;;8.66;100.00;99506.22;4819126;29;20510;-69
2024/01/02 00:44:27;;;;;;;14.70;6.05;;;8.50;99.90;;;8.68;100.00;99470.16;4804935;29;20409;-69
2024/01/02 00:46:56;;;;;;;13.38;5.55;;;8.50;99.90;;;8.72;100.00;99483.25;4819183;29;20133;-68
2024/01/02 00:49:24;;;;;;;8.70;5.47;;;8.60;99.90;;;8.59;100.00;99434.31;4805060;29;20054;-68
2024/01/02 00:51:53;;;;;;;10.77;5.50;;;8.50;99.90;;;8.66;100.00;99454.38;4819047;29;20054;-69
2024/01/02 00:54:23;;;;;;;10.82;5.07;;;8.50;99.90;;;8.63;100.00;99432.50;4804710;29;20047;-69
2024/01/02 00:56:51;;;;;;;13.77;6.15;;;8.50;99.90;;;8.56;100.00;99405.38;4819065;29;20059;-68
2024/01/02 00:59:19;;;;;;;10.45;5.53;;;8.40;99.90;;;8.62;100.00;99420.19;4819001;29;20043;-68
2024/01/02 01:01:48;;;;;;;11.95;5.68;;;8.50;99.90;;;8.61;100.00;99421.09;4818908;29;20125;-68
2024/01/02 01:04:16;;;;;;;9.13;5.35;;;8.50;99.90;;;8.63;100.00;99385.06;4804940;29;20055;-68
2024/01/02 01:06:44;;;;;;;9.57;5.10;;;8.50;99.90;;;8.69;100.00;99382.28;4805164;29;20122;-68
2024/01/02 01:09:13;;;;;;;8.25;4.88;;;8.60;99.90;;;8.71;100.00;99364.69;4804834;29;20103;-68
2024/01/02 01:11:43;;;;;;;11.27;5.45;;;8.60;99.90;;;8.64;100.00;99365.69;4818814;29;20092;-68
2024/01/02 01:14:11;;;;;;;9.67;4.20;;;8.60;99.90;;;8.71;100.00;99336.53;4804520;29;20047;-67
2024/01/02 01:16:39;;;;;;;9.57;4.88;;;8.60;99.90;;;8.71;100.00;99333.06;4818751;29;20304;-68
2024/01/02 01:19:08;;;;;;;6.35;4.60;;;8.60;99.90;;;8.67;100.00;99321.69;4804576;29;20051;-68
2024/01/02 01:21:36;;;;;;;7.22;4.10;;;8.60;99.90;;;8.67;100.00;99305.03;4819014;29;20053;-68
2024/01/02 01:24:05;;;;;;;7.80;5.03;;;8.50;99.90;;;8.74;100.00;99323.31;4805198;29;20051;-68
2024/01/02 01:26:34;;;;;;;9.10;4.77;;;8.60;99.90;;;8.78;100.00;99285.44;4804769;29;20051;-68
2024/01/02 01:29:04;;;;;;;9.98;4.63;;;8.60;99.90;;;8.80;100.00;99282.75;4804786;29;20138;-68
2024/01/02 01:31:32;;;;;;;8.10;4.63;;;8.70;99.90;;;8.81;100.00;99261.63;4818510;29;20058;-68
2024/01/02 01:34:01;;;;;;;5.75;4.32;;;8.70;99.90;;;8.81;100.00;99259.00;4804717;29;20086;-68
2024/01/02 01:36:29;;;;;;;9.20;4.57;;;8.70;99.90;;;8.84;100.00;99260.72;4818504;29;20065;-68
2024/01/02 01:38:57;;;;;;;8.88;5.35;;;8.70;99.90;;;8.82;100.00;99258.09;4818274;29;20055;-68
2024/01/02 01:41:26;;;;;;;8.57;4.38;;;8.70;99.90;;;8.86;100.00;99222.00;4804600;29;20062;-68
2024/01/02 01:43:54;;;;;;;6.03;4.35;;;8.70;99.90;;;8.91;100.00;99197.25;4804576;29;20051;-68
2024/01/02 01:46:25;;;;;;;7.32;4.30;;;8.80;99.90;;;8.94;100.00;99209.50;4803583;29;20062;-67
2024/01/02 01:48:54;;;;;;;7.05;4.43;;;8.80;99.90;;;9.00;100.00;99210.19;4804458;29;20131;-68
2024/01/02 01:51:23;;;;;;;5.65;4.35;;;8.90;99.90;;;8.95;100.00;99211.22;4807769;29;20108;-68
2024/01/02 01:53:52;;;;;;;5.40;4.50;;;8.90;99.90;;;8.98;100.00;99190.91;4807908;29;20059;-68
2024/01/02 01:56:21;;;;;;;6.50;4.63;;;8.90;99.90;;;9.00;100.00;99164.53;4807944;29;20463;-68
2024/01/02 01:58:50;;;;;;;8.00;4.80;;;8.90;99.90;;;8.98;100.00;99153.16;4821783;29;20177;-68
2024/01/02 02:01:18;;;;;;;5.45;4.30;;;8.90;99.90;;;9.01;100.00;99153.06;4821682;29;20502;-68
2024/01/02 02:03:48;;;;;;;6.25;4.50;;;8.90;99.90;;;9.06;100.00;99153.78;4821660;29;20137;-68
2024/01/02 02:06:17;;;;;;;5.18;4.43;;;8.90;99.90;;;9.13;100.00;99143.97;4807815;29;20129;-68
2024/01/02 02:08:45;;;;;;;5.03;4.28;;;9.00;99.90;;;9.16;100.00;99126.28;4807767;29;20497;-69
2024/01/02 02:11:15;;;;;;;7.35;4.60;;;9.00;99.90;;;9.17;100.00;99154.41;4807423;29;20054;-68
2024/01/02 02:13:44;;;;;;;6.25;4.70;;;9.00;99.90;;;9.20;100.00;99108.59;4821378;29;20082;-69
2024/01/02 02:16:12;;;;;;;6.53;4.57;;;9.10;99.90;;;9.17;100.00;99106.94;4807615;29;20046;-68
2024/01/02 02:18:40;;;;;;;6.43;4.70;;;9.10;99.90;;;9.28;100.00;99094.31;4807568;29;20082;-68
2024/01/02 02:21:10;;;;;;;5.53;4.47;;;9.10;99.90;;;9.35;100.00;99090.56;4807300;29;20066;-69
2024/01/02 02:23:40;;;;;;;6.40;4.90;;;9.20;99.90;;;9.41;100.00;99082.50;4821348;29;20047;-69
2024/01/02 02:26:08;;;;;;;6.55;4.40;;;9.30;99.90;;;9.47;100.00;99061.22;4807129;29;20756;-68
2024/01/02 02:28:37;;;;;;;4.60;4.20;;;9.30;99.90;;;9.50;100.00;99060.25;4807360;29;20039;-68
2024/01/02 02:31:05;;;;;;;5.05;4.65;;;9.40;99.90;;;9.55;100.00;99046.03;4807007;29;20454;-68
2024/01/02 02:33:34;;;;;;;5.00;4.38;;;9.40;99.90;;;9.53;100.00;99020.59;4807245;29;20129;-69
2024/01/02 02:36:04;;;;;;;5.50;5.00;;;9.40;99.90;;;9.54;100.00;99024.97;4807352;29;20112;-68
2024/01/02 02:38:33;;;;;;;5.55;5.00;;;9.40;99.90;;;9.49;100.00;99025.09;4807048;29;20420;-68
2024/01/02 02:41:03;;;;;;;5.07;4.75;;;9.40;99.90;;;9.46;100.00;99027.84;4807230;29;20100;-68
2024/01/02 02:43:31;;;;;;;5.50;5.10;;;9.40;99.90;;;9.47;100.00;99023.41;4805926;29;20065;-69
2024/01/02 02:45:59;;;;;;;7.78;5.00;;;9.40;99.90;;;9.59;100.00;99021.28;4807086;29;20468;-69
2024/01/02 02:48:28;;;;;;;7.15;5.43;;;9.40;99.90;;;9.55;100.00;99014.34;4807296;29;20047;-68
2024/01/02 02:50:56;;;;;;;5.30;4.90;;;9.50;99.90;;;9.65;100.00;98999.97;4807060;29;20078;-68
2024/01/02 02:53:24;;;;;;;5.57;5.03;;;9.50;99.90;;;9.60;100.00;99009.78;4806661;29;20061;-69
2024/01/02 02:55:53;;;;;;;5.88;5.05;;;9.50;99.90;;;9.56;100.00;99010.78;4820773;29;20074;-69
2024/01/02 02:58:24;;;;;;;4.82;4.53;;;9.50;99.90;;;9.62;100.00;98973.66;4820680;29;20057;-69
2024/01/02 03:00:52;;;;;;;5.47;4.97;;;9.50;99.90;;;9.67;100.00;98968.25;4807115;29;20104;-69
2024/01/02 03:03:20;;;;;;;4.90;4.50;;;9.50;99.90;;;9.77;100.00;98960.00;4805785;29;20057;-69
2024/01/02 03:05:49;;;;;;;5.07;4.65;;;9.60;99.90;;;9.79;100.00;98962.59;4806507;29;20070;-69
2024/01/02 03:08:17;;;;;;;5.15;4.60;;;9.60;99.90;;;9.89;100.00;98961.38;4806408;29;20071;-69
2024/01/02 03:10:49;;;;;;;5.18;4.55;;;9.70;99.90;;;9.98;100.00;98946.09;4806671;29;20436;-68
2024/01/02 03:13:17;;;;;;;5.03;4.40;;;9.80;99.90;;;9.93;100.00;98968.25;4806359;29;20099;-68
2024/01/02 03:15:47;;;;;;;4.40;4.10;;;9.80;99.90;;;10.07;100.00;98936.13;4806486;29;20518;-68
2024/01/02 03:18:16;;;;;;;5.32;4.60;;;9.90;99.90;;;10.17;100.00;98945.50;4806427;29;20574;-68
2024/01/02 03:20:45;;;;;;;4.93;4.45;;;9.90;99.90;;;10.19;100.00;98920.78;4806477;29;20058;-68
2024/01/02 03:23:13;;;;;;;4.78;4.38;;;10.00;99.90;;;10.25;100.00;98914.41;4806208;29;20051;-68
2024/01/02 03:25:42;;;;;;;4.43;4.03;;;10.10;99.90;;;10.29;100.00;98930.13;4806441;29;20387;-69
2024/01/02 03:28:10;;;;;;;4.43;4.05;;;10.10;99.90;;;10.31;100.00;98916.84;4806114;29;20119;-69
2024/01/02 03:30:40;;;;;;;4.30;4.00;;;10.10;99.90;;;10.31;100.00;98871.94;4806551;29;20073;-68
2024/01/02 03:33:10;;;;;;;4.28;3.90;;;10.10;99.90;;;10.39;100.00;98878.69;4806506;29;20593;-68
2024/01/02 03:35:38;;;;;;;3.97;3.65;;;10.20;99.90;;;10.40;100.00;98872.47;4806261;29;20079;-68
2024/01/02 03:38:07;;;;;;;3.95;3.65;;;10.20;99.90;;;10.47;100.00;98883.69;4805983;29;20083;-68
2024/01/02 03:40:35;;;;;;;3.65;3.35;;;10.30;99.90;;;10.56;100.00;98901.84;4820265;29;20524;-68
2024/01/02 03:43:04;;;;;;;4.00;3.80;;;10.30;99.90;;;10.64;100.00;98905.09;4805834;29;20131;-68
2024/01/02 03:45:32;;;;;;;4.55;4.15;;;10.40;99.90;;;10.75;100.00;98908.19;4805778;29;20046;-68
2024/01/02 03:48:02;;;;;;;5.35;4.95;;;10.50;99.90;;;10.72;100.00;98924.19;4805979;29;20043;-68
2024/01/02 03:50:31;;;;;;;5.90;5.30;;;10.60;99.90;;;10.81;100.00;98892.97;4806065;29;20055;-68
2024/01/02 03:53:00;;;;;;;6.20;5.80;;;10.60;99.90;;;10.83;100.00;98871.75;4805981;29;20081;-69
2024/01/02 03:55:28;;;;;;;7.03;6.43;;;10.60;99.90;;;10.80;100.00;98893.88;5270614;24;20127;-64
2024/01/02 03:57:57;;;;;;;6.65;6.18;;;10.60;99.90;;;10.46;100.00;98790.31;4822939;29;20054;-65
2024/01/02 04:00:25;;;;;;;5.75;5.35;;;10.70;99.90;;;10.93;100.00;98869.63;4821681;29;20134;-64
2024/01/02 04:02:53;;;;;;;6.20;5.80;;;10.70;99.90;;;10.97;100.00;98873.88;4822924;29;20050;-64
2024/01/02 04:05:23;;;;;;;6.72;6.15;;;10.70;99.90;;;10.89;100.00;98875.03;4822748;29;20065;-65
2024/01/02 04:07:53;;;;;;;5.73;5.20;;;10.70;99.90;;;11.02;100.00;98856.91;4823129;29;20528;-65
2024/01/02 04:10:22;;;;;;;6.00;5.60;;;10.80;99.90;;;11.13;100.00;98873.22;4822733;29;20964;-64
2024/01/02 04:12:50;;;;;;;5.63;5.13;;;10.90;99.90;;;11.15;100.00;98858.16;4822218;29;20070;-64
2024/01/02 04:15:18;;;;;;;5.30;4.90;;;10.90;99.90;;;11.12;100.00;98874.16;4822564;29;20061;-64
2024/01/02 04:17:47;;;;;;;5.03;4.63;;;10.90;99.90;;;11.20;100.00;98858.84;4822601;29;20050;-65
2024/01/02 04:20:16;;;;;;;5.10;4.70;;;11.00;99.90;;;11.19;100.00;98866.84;4822561;29;20046;-64
2024/01/02 04:22:45;;;;;;;4.68;4.38;;;10.90;99.90;;;11.22;100.00;98862.31;4822575;29;20114;-66
2024/01/02 04:25:14;;;;;;;4.50;4.20;;;11.00;99.90;;;11.21;100.00;98881.72;4822543;29;20078;-64
2024/01/02 04:27:43;;;;;;;4.07;3.77;;;11.00;99.90;;;11.27;100.00;98865.63;4822680;29;20080;-65
2024/01/02 04:30:13;;;;;;;4.18;3.88;;;11.00;99.90;;;11.38;100.00;98865.22;4836417;29;20054;-64
2024/01/02 04:32:41;;;;;;;4.35;3.95;;;11.10;99.90;;;11.42;100.00;98870.28;4822434;29;20046;-66
2024/01/02 04:35:10;;;;;;;4.28;3.97;;;11.20;99.90;;;11.41;100.00;98868.59;4822406;29;20074;-65
2024/01/02 04:37:39;;;;;;;3.67;3.38;;;11.20;99.90;;;11.45;100.00;98858.72;4822566;29;20066;-64
2024/01/02 04:40:11;;;;;;;3.80;3.50;;;11.20;99.90;;;11.46;100.00;98877.19;4822437;29;20500;-66
2024/01/02 04:42:40;;;;;;;4.28;3.97;;;11.20;99.90;;;11.54;100.00;98875.09;4836403;29;20058;-66
2024/01/02 04:45:10;;;;;;;4.28;3.88;;;11.30;99.90;;;11.51;100.00;98862.00;4822393;29;20061;-65
2024/01/02 04:47:38;;;;;;;7.55;4.00;;;11.30;99.90;;;11.57;100.00;98874.13;4822503;29;20104;-64
2024/01/02 04:50:08;;;;;;;13.88;5.10;;;11.40;99.90;;;11.68;100.00;98872.81;4822451;29;20050;-64
2024/01/02 04:52:36;;;;;;;12.65;5.25;;;11.40;99.90;;;11.74;100.00;98861.97;4822110;29;20062;-64
2024/01/02 04:55:06;;;;;;;17.17;5.95;;;11.50;99.90;;;11.84;100.00;98873.03;4821918;29;20069;-66
2024/01/02 04:57:34;;;;;;;23.98;6.28;;;11.60;99.90;;;11.84;100.00;98862.44;4822110;29;20066;-64
2024/01/02 05:00:06;;;;;;;27.92;6.68;;;11.60;99.90;;;11.93;100.00;98863.81;4822242;29;20054;-65
2024/01/02 05:02:34;;;;;;;35.40;6.95;;;11.60;99.90;;;11.97;100.00;98891.91;4821179;29;20671;-66
2024/01/02 05:05:04;;;;;;;39.70;7.85;;;11.80;99.90;;;12.06;100.00;98881.78;4821930;29;20051;-65
2024/01/02 05:07:32;;;;;;;51.92;9.27;;;11.80;99.90;;;12.12;100.00;98878.88;4822161;29;20458;-66
2024/01/02 05:10:01;;;;;;;48.80;9.88;;;11.90;99.90;;;12.20;100.00;98882.06;4835944;29;20069;-65
2024/01/02 05:12:29;;;;;;;53.88;9.23;;;12.00;99.90;;;12.28;100.00;98861.41;4822074;29;20519;-66
2024/01/02 05:14:57;;;;;;;52.22;9.10;;;12.00;99.90;;;12.36;100.00;98882.28;4822325;29;20054;-65
2024/01/02 05:17:27;;;;;;;53.25;9.13;;;12.10;99.90;;;12.32;100.00;98880.69;4835739;29;20054;-66
2024/01/02 05:19:56;;;;;;;43.67;8.63;;;12.10;99.90;;;12.34;100.00;98879.69;4822083;29;20133;-66
2024/01/02 05:22:24;;;;;;;46.45;9.23;;;12.10;99.90;;;12.35;100.00;98889.34;4822389;29;20053;-65
2024/01/02 05:24:52;;;;;;;53.13;10.77;;;12.10;99.90;;;12.43;100.00;98895.19;4823041;29;20126;-65
2024/01/02 05:27:22;;;;;;;50.95;9.98;;;12.20;99.90;;;12.43;100.00;98903.16;4825340;29;20051;-66
2024/01/02 05:29:51;;;;;;;45.03;9.27;;;12.20;99.90;;;12.46;100.00;98903.03;4825318;29;20054;-66
2024/01/02 05:32:19;;;;;;;48.70;9.57;;;12.20;99.90;;;12.09;100.00;98852.53;4825179;29;20081;-66
2024/01/02 05:34:49;;;;;;;49.95;9.77;;;12.20;99.90;;;12.49;100.00;98909.97;4825133;29;20138;-66
2024/01/02 05:37:18;;;;;;;51.47;10.23;;;12.30;99.90;;;12.54;100.00;98919.44;4825274;29;20046;-66
2024/01/02 05:39:47;;;;;;;47.90;9.20;;;12.30;99.90;;;12.56;100.00;98928.19;4825391;29;20089;-66
2024/01/02 05:42:15;;;;;;;41.85;9.63;;;12.30;99.90;;;12.64;100.00;98930.50;4825060;29;20054;-67
2024/01/02 05:44:43;;;;;;;49.28;9.45;;;12.40;99.90;;;12.66;100.00;98933.97;4824966;29;20524;-65
2024/01/02 05:47:12;;;;;;;45.25;9.43;;;12.40;99.90;;;12.69;100.00;98937.38;4824925;29;20380;-68
2024/01/02 05:49:40;;;;;;;56.55;10.13;;;12.40;99.90;;;12.68;100.00;98948.88;4825216;29;20057;-65
2024/01/02 05:52:10;;;;;;;48.53;9.13;;;12.40;99.90;;;12.67;100.00;98939.22;4824882;29;20103;-66
2024/01/02 05:54:39;;;;;;;63.57;10.20;;;12.40;99.90;;;12.63;100.00;98928.81;4824873;29;20100;-67
2024/01/02 05:57:07;;;;;;;63.03;11.90;;;12.40;99.90;;;12.56;100.00;98944.09;4825091;29;20759;-66
2024/01/02 05:59:35;;;;;;;50.92;10.60;;;12.40;99.90;;;12.59;100.00;98949.28;4825272;29;20057;-66
2024/01/02 06:02:04;;;;;;;55.88;10.15;;;12.30;99.90;;;12.56;100.00;98953.88;4824734;29;20053;-66
2024/01/02 06:04:33;;;;;;;59.65;10.48;;;12.30;99.90;;;12.53;100.00;98959.28;4824886;29;20054;-66
2024/01/02 06:07:01;;;;;;;56.95;11.30;;;12.30;99.90;;;12.56;100.00;98970.63;4824989;29;20103;-66
2024/01/02 06:09:31;;;;;;;50.33;10.48;;;12.30;99.90;;;12.59;100.00;98975.81;4823269;29;20069;-65
2024/01/02 06:12:00;;;;;;;57.47;11.30;;;12.30;99.90;;;12.62;100.00;98970.38;4823245;29;20099;-67
2024/01/02 06:14:28;;;;;;;62.60;10.90;;;12.40;99.90;;;12.62;100.00;98980.97;4824680;29;20074;-66
2024/01/02 06:16:57;;;;;;;62.60;11.40;;;12.40;99.90;;;12.55;100.00;98974.22;4823333;29;20077;-66
2024/01/02 06:19:25;;;;;;;71.75;11.85;;;12.30;99.90;;;12.61;100.00;98979.25;4824498;29;20617;-66
2024/01/02 06:21:54;;;;;;;70.18;12.75;;;12.30;99.90;;;12.62;100.00;98974.78;4823318;29;20454;-67
2024/01/02 06:24:25;;;;;;;63.50;11.35;;;12.40;99.90;;;12.65;100.00;98970.25;4823466;29;20537;-66
2024/01/02 06:26:55;;;;;;;65.43;11.95;;;12.40;99.90;;;12.63;100.00;98976.53;4824394;29;20560;-67
2024/01/02 06:29:25;;;;;;;62.53;12.20;;;12.40;99.90;;;12.68;100.00;98983.38;4823298;29;20057;-68
2024/01/02 06:31:54;;;;;;;62.80;12.05;;;12.40;99.90;;;12.58;100.00;98970.59;4824165;29;20140;-67
2024/01/02 06:34:22;;;;;;;64.78;11.85;;;12.40;99.90;;;12.62;100.00;98975.66;4824145;29;20078;-67
2024/01/02 06:36:51;;;;;;;71.57;11.60;;;12.40;99.90;;;12.57;100.00;98984.75;4823679;29;20046;-67
2024/01/02 06:39:19;;;;;;;65.65;13.13;;;12.30;99.90;;;12.62;100.00;98996.00;4824285;29;20465;-67
2024/01/02 06:41:48;;;;;;;67.35;12.68;;;12.30;99.90;;;12.59;100.00;99001.47;4824548;29;20153;-68
2024/01/02 06:44:19;;;;;;;67.90;12.77;;;12.40;99.90;;;12.63;100.00;99008.38;4824501;29;20481;-68
2024/01/02 06:46:47;;;;;;;72.70;12.57;;;12.30;99.90;;;12.58;100.00;98994.44;4824053;29;20061;-68
2024/01/02 06:49:15;;;;;;;71.80;13.63;;;12.30;99.90;;;12.64;100.00;99010.94;4824080;29;20105;-68
2024/01/02 06:51:45;;;;;;;66.65;12.80;;;12.40;99.90;;;12.65;100.00;99010.03;4823778;29;20043;-68
2024/01/02 06:54:13;;;;;;;82.22;15.38;;;12.40;99.90;;;12.66;100.00;99008.22;4823809;29;20054;-68
2024/01/02 06:56:42;;;;;;;72.00;13.20;;;12.40;99.90;;;12.52;100.00;98998.19;4823844;29;20131;-67
2024/01/02 06:59:10;;;;;;;79.22;13.27;;;12.40;99.90;;;12.57;100.00;99019.22;4822725;29;20258;-67
2024/01/02 07:01:40;;;;;;;80.55;13.55;;;12.40;99.90;;;12.61;100.00;99012.88;4823667;29;20497;-67
2024/01/02 07:04:08;;;;;;;63.85;13.00;;;12.40;99.90;;;12.63;100.00;99017.19;4823707;29;20074;-67
2024/01/02 07:06:37;;;;;;;59.42;12.35;;;12.40;99.90;;;12.64;100.00;99026.84;4824051;29;20065;-67
2024/01/02 07:09:06;;;;;;;82.07;13.80;;;12.40;99.90;;;12.67;100.00;99025.88;4823597;29;20420;-68
2024/01/02 07:11:34;;;;;;;83.07;13.35;;;12.40;99.90;;;12.65;100.00;99025.94;4823535;29;20501;-67
2024/01/02 07:14:02;;;;;;;64.65;13.48;;;12.40;99.90;;;12.69;100.00;99027.53;4823794;29;20051;-67
2024/01/02 07:16:32;;;;;;;76.78;13.18;;;12.40;99.90;;;12.67;100.00;99047.09;4823673;29;20099;-68
2024/01/02 07:19:01;;;;;;;70.32;12.93;;;12.40;99.90;;;12.74;100.00;99051.19;4823302;29;20084;-67
2024/01/02 07:21:30;;;;;;;69.22;14.60;;;12.50;99.90;;;12.74;100.00;99051.19;4837724;29;20061;-67
2024/01/02 07:23:58;;;;;;;79.35;13.80;;;12.50;99.90;;;12.70;100.00;99055.78;4837668;29;20095;-68
2024/01/02 07:26:27;;;;;;;61.83;12.43;;;12.40;99.90;;;12.73;100.00;99060.09;4823360;29;20111;-68
2024/01/02 07:28:55;;;;;;;71.20;12.93;;;12.50;99.90;;;12.72;100.00;99068.97;4822164;29;20046;-67
2024/01/02 07:31:24;;;;;;;63.33;11.65;;;12.50;99.90;;;12.78;100.00;99065.19;4823683;29;20057;-67
2024/01/02 07:33:53;;;;;;;73.22;13.38;;;12.50;99.90;;;12.75;100.00;99063.56;4837559;29;20050;-67
2024/01/02 07:36:23;;;;;;;65.28;12.20;;;12.50;99.90;;;12.22;100.00;98964.16;4823010;29;20058;-67
2024/01/02 07:38:51;;;;;;;58.47;12.83;;;12.50;99.90;;;12.77;100.00;99061.69;4823278;29;20074;-67
2024/01/02 07:41:19;;;;;;;66.03;11.77;;;12.50;99.90;;;12.78;100.00;99076.69;4823198;29;20065;-68
2024/01/02 07:43:48;;;;;;;52.10;11.35;;;12.50;99.90;;;12.82;100.00;99072.09;4823097;29;20133;-67
2024/01/02 07:46:17;;;;;;;56.30;10.80;;;12.60;99.90;;;12.88;100.00;99070.06;4822125;29;20565;-68
2024/01/02 07:48:45;;;;;;;61.00;12.27;;;12.60;99.90;;;12.89;100.00;99066.47;4822350;29;20392;-67
2024/01/02 07:51:14;;;;;;;46.85;11.07;;;12.60;99.90;;;12.87;100.00;99060.38;4822916;29;20416;-68
2024/01/02 07:53:44;;;;;;;67.18;11.95;;;12.60;99.90;;;12.89;100.00;99058.50;4823093;29;20050;-69
2024/01/02 07:56:12;;;;;;;49.30;11.10;;;12.60;99.90;;;12.91;100.00;99050.50;4836712;29;20461;-67
2024/01/02 07:58:41;;;;;;;50.15;11.10;;;12.60;99.90;;;12.33;100.00;98969.91;4822887;29;20295;-66
2024/01/02 08:01:09;;;;;;;51.30;11.45;;;12.60;99.90;;;12.96;100.00;99059.97;4823111;29;20107;-67
2024/01/02 08:03:37;;;;;;;54.70;11.20;;;12.70;99.90;;;12.93;100.00;99060.09;4822806;29;20050;-66
2024/01/02 08:06:06;;;;;;;48.58;10.93;;;12.60;99.90;;;12.77;100.00;99031.66;4823092;29;20492;-65
2024/01/02 08:08:35;;;;;;;57.90;11.77;;;12.60;99.90;;;12.96;100.00;99044.06;4822619;29;20122;-68
2024/01/02 08:11:05;;;;;;;57.63;11.90;;;12.70;99.90;;;12.99;100.00;99041.25;4822804;29;20057;-67
2024/01/02 08:13:33;;;;;;;62.20;11.20;;;12.70;99.90;;;12.93;100.00;99048.66;4822808;29;20046;-68
2024/01/02 08:16:03;;;;;;;55.33;11.68;;;12.70;99.90;;;12.97;100.00;99040.47;4822562;29;20039;-66
2024/01/02 08:18:33;;;;;;;56.45;11.50;;;12.70;99.90;;;13.06;100.00;99034.81;4822609;29;20133;-66
2024/01/02 08:21:02;;;;;;;54.22;12.68;;;12.70;99.90;;;13.04;100.00;99047.28;4822577;29;20133;-67
2024/01/02 08:23:31;;;;;;;52.88;11.10;;;12.80;99.90;;;13.01;100.00;99041.19;4823171;29;20442;-65
2024/01/02 08:25:59;;;;;;;45.47;10.82;;;12.80;99.90;;;13.19;100.00;99048.38;4822440;29;20081;-66
2024/01/02 08:28:29;;;;;;;48.83;10.77;;;12.80;99.90;;;13.17;100.00;99034.31;4822425;29;20081;-67
2024/01/02 08:30:59;;;;;;;45.78;10.38;;;12.90;99.90;;;13.20;100.00;99044.81;4822682;29;20126;-66
2024/01/02 08:33:29;;;;;;;46.53;10.45;;;12.90;99.90;;;13.21;100.00;99049.19;4821560;29;20069;-65
2024/01/02 08:35:58;;;;;;;55.50;12.73;;;12.90;99.90;;;13.31;100.00;99054.03;4822278;29;20098;-64
2024/01/02 08:38:26;;;;;;;55.40;11.65;;;13.00;99.90;;;13.34;100.00;99056.53;4822325;29;20049;-67
2024/01/02 08:40:55;;;;;;;48.53;10.85;;;13.10;99.90;;;13.18;100.00;99020.97;4822183;29;20061;-66
2024/01/02 08:43:23;;;;;;;54.72;10.57;;;13.10;99.90;;;13.42;100.00;99046.44;4822609;29;20049;-68
2024/01/02 08:45:53;;;;;;;54.50;12.82;;;13.10;99.90;;;13.43;100.00;99109.22;4822223;29;20061;-69
2024/01/02 08:48:21;;;;;;;62.75;11.98;;;13.10;99.90;;;13.39;100.00;99038.59;4822082;29;20058;-71
2024/01/02 08:50:50;;;;;;;55.83;12.20;;;13.10;99.90;;;13.28;100.00;99040.88;4821915;29;20121;-69
2024/01/02 08:53:18;;;;;;;76.80;13.88;;;13.00;99.90;;;13.24;100.00;99049.91;4821872;29;20050;-69
2024/01/02 08:55:47;;;;;;;69.10;13.07;;;12.90;99.90;;;13.16;100.00;99030.78;4821879;29;20062;-68
2024/01/02 08:58:15;;;;;;;72.75;13.60;;;12.90;99.90;;;13.15;100.00;99026.44;4821854;29;20042;-69
2024/01/02 09:00:44;;;;;;;72.43;13.57;;;12.80;99.90;;;13.12;100.00;99029.25;4822231;29;20054;-68
2024/01/02 09:03:14;;;;;;;70.72;13.88;;;12.80;99.90;;;13.14;100.00;99032.66;4821999;29;20571;-69
2024/01/02 09:05:42;;;;;;;60.22;12.75;;;12.80;99.90;;;13.14;100.00;99026.50;4822287;29;20058;-67
2024/01/02 09:08:11;;;;;;;69.65;13.25;;;12.90;99.90;;;13.21;100.00;99025.28;4820877;29;20065;-69
2024/01/02 09:10:40;;;;;;;71.22;13.23;;;12.90;99.90;;;13.14;100.00;99016.72;4821956;29;20378;-64
2024/01/02 09:13:08;;;;;;;70.57;13.55;;;12.90;99.90;;;13.27;100.00;99017.06;4821945;29;20100;-67
2024/01/02 09:15:37;;;;;;;73.93;13.82;;;13.00;99.90;;;13.18;100.00;99012.16;4821772;29;20129;-68
2024/01/02 09:18:05;;;;;;;59.67;11.88;;;12.90;99.90;;;13.27;100.00;99014.41;4821557;29;20115;-69
2024/01/02 09:20:36;;;;;;;61.03;12.40;;;13.00;99.90;;;13.25;100.00;99017.13;4821720;29;20046;-67
2024/01/02 09:23:04;;;;;;;54.03;10.97;;;13.00;99.90;;;13.31;100.00;99018.66;4821911;29;20054;-68
2024/01/02 09:25:40;;;;;;;53.40;10.27;;;13.00;99.90;;;13.24;100.00;98996.81;4820504;29;20119;-67
2024/01/02 09:28:12;;;;;;;46.08;9.77;;;13.00;99.90;;;13.32;100.00;99007.94;4821758;29;20129;-68
2024/01/02 09:30:46;;;;;;;43.95;10.32;;;13.00;99.90;;;13.33;100.00;99012.34;4821714;29;20496;-68
2024/01/02 09:33:14;;;;;;;46.60;10.73;;;13.10;99.90;;;13.32;100.00;99009.72;4821806;29;20054;-69
2024/01/02 09:35:45;;;;;;;50.13;9.73;;;13.00;99.90;;;13.33;100.00;99017.66;4821532;29;20528;-68
2024/01/02 09:38:15;;;;;;;42.08;9.75;;;13.00;99.90;;;13.34;100.00;99010.53;4821720;29;20520;-69
2024/01/02 09:41:06;;;;;;;44.45;9.73;;;13.00;99.90;;;13.42;100.00;99014.56;4821880;29;20043;-68
2024/01/02 09:43:49;;;;;;;48.05;10.55;;;13.10;99.90;;;13.43;100.00;99008.31;4821569;29;20046;-68
2024/01/02 09:46:30;;;;;;;40.90;8.80;;;13.10;99.90;;;13.45;100.00;99005.63;4821628;29;20043;-68
2024/01/02 09:49:18;;;;;;;37.83;9.13;;;13.20;99.90;;;13.52;100.00;99007.91;4821625;29;20051;-68
2024/01/02 09:52:10;;;;;;;38.90;8.35;;;13.20;99.90;;;13.48;100.00;99016.94;4821536;29;20054;-68
2024/01/02 09:54:51;;;;;;;39.55;8.45;;;13.20;99.90;;;13.56;100.00;99021.91;4821498;29;20137;-69
2024/01/02 09:57:29;;;;;;;33.22;8.27;;;13.30;99.90;;;13.61;100.00;99011.09;4821607;29;20078;-68
2024/01/02 10:00:05;;;;;;;35.40;8.30;;;13.40;99.90;;;13.60;100.00;99012.88;4835759;29;20062;-68
2024/01/02 10:03:14;;;;;;;33.40;8.10;;;13.30;99.90;;;13.57;100.00;99005.91;4821789;29;20053;-69
2024/01/02 10:05:59;;;;;;;29.40;7.57;;;13.40;99.90;;;13.67;100.00;99016.94;4835395;29;20054;-69
2024/01/02 10:08:46;;;;;;;30.23;8.05;;;13.40;99.90;;;13.69;100.00;99011.56;4821589;29;20062;-68
2024/01/02 10:11:29;;;;;;;27.25;7.45;;;13.40;99.90;;;13.73;100.00;99011.34;4822649;29;20047;-69
2024/01/02 10:14:03;;;;;;;29.02;7.78;;;13.40;99.90;;;13.77;100.00;99014.72;4824251;29;20053;-70
2024/01/02 10:16:39;;;;;;;31.92;9.25;;;13.50;99.90;;;13.68;100.00;99007.19;4824698;29;20137;-68
2024/01/02 10:19:20;;;;;;;26.40;7.95;;;13.40;99.90;;;13.66;100.00;98983.38;4824496;29;20046;-69
2024/01/02 10:22:05;;;;;;;27.08;7.15;;;13.50;99.90;;;13.81;100.00;99003.88;4824436;29;20133;-69